sensor_id;sensor_type;location;lat;lon;timestamp;temperature;humidity
20732;DHT22;10527;52.124;5.196;2023-06-10T00:02:21;23.40;99.90
20732;DHT22;10527;52.124;5.196;2023-06-10T00:04:48;23.30;99.90
20732;DHT22;10527;52.124;5.196;2023-06-10T00:07:15;23.30;99.90
20732;DHT22;10527;52.124;5.196;2023-06-10T00:09:42;23.20;99.90
20732;DHT22;10527;52.124;5.196;2023-06-10T00:12:09;23.20;99.90
20732;DHT22;10527;52.124;5.196;2023-06-10T00:14:38;23.20;99.90
20732;DHT22;10527;52.124;5.196;2023-06-10T00:17:07;23.10;99.90
20732;DHT22;10527;52.124;5.196;2023-06-10T00:19:37;23.00;99.90
20732;DHT22;10527;52.124;5.196;2023-06-10T00:22:08;23.00;99.90
20732;DHT22;10527;52.124;5.196;2023-06-10T00:24:38;23.00;99.90
20732;DHT22;10527;52.124;5.196;2023-06-10T00:27:05;23.00;99.90
20732;DHT22;10527;52.124;5.196;2023-06-10T00:29:34;23.00;99.90
20732;DHT22;10527;52.124;5.196;2023-06-10T00:32:00;23.00;99.90
20732;DHT22;10527;52.124;5.196;2023-06-10T00:34:28;23.00;99.90
20732;DHT22;10527;52.124;5.196;2023-06-10T00:36:54;22.90;99.90
20732;DHT22;10527;52.124;5.196;2023-06-10T00:39:21;22.80;99.90
20732;DHT22;10527;52.124;5.196;2023-06-10T00:41:51;22.80;99.90
20732;DHT22;10527;52.124;5.196;2023-06-10T00:44:18;22.80;99.90
20732;DHT22;10527;52.124;5.196;2023-06-10T00:46:45;22.70;99.90
20732;DHT22;10527;52.124;5.196;2023-06-10T00:49:12;22.70;99.90
20732;DHT22;10527;52.124;5.196;2023-06-10T00:51:39;22.60;99.90
20732;DHT22;10527;52.124;5.196;2023-06-10T00:54:08;22.60;99.90
20732;DHT22;10527;52.124;5.196;2023-06-10T00:56:35;22.60;99.90
20732;DHT22;10527;52.124;5.196;2023-06-10T00:59:05;22.60;99.90
20732;DHT22;10527;52.124;5.196;2023-06-10T01:01:31;22.60;99.90
20732;DHT22;10527;52.124;5.196;2023-06-10T01:03:59;22.50;99.90
20732;DHT22;10527;52.124;5.196;2023-06-10T01:06:46;22.40;99.90
20732;DHT22;10527;52.124;5.196;2023-06-10T01:12:36;22.50;99.90
20732;DHT22;10527;52.124;5.196;2023-06-10T01:15:09;22.50;99.90
20732;DHT22;10527;52.124;5.196;2023-06-10T01:18:00;22.40;99.90
20732;DHT22;10527;52.124;5.196;2023-06-10T01:20:44;22.40;99.90
20732;DHT22;10527;52.124;5.196;2023-06-10T01:23:13;22.30;99.90
20732;DHT22;10527;52.124;5.196;2023-06-10T01:25:48;22.30;99.90
20732;DHT22;10527;52.124;5.196;2023-06-10T01:28:44;22.20;99.90
20732;DHT22;10527;52.124;5.196;2023-06-10T01:34:12;22.10;99.90
20732;DHT22;10527;52.124;5.196;2023-06-10T01:36:47;22.10;99.90
20732;DHT22;10527;52.124;5.196;2023-06-10T01:39:17;22.00;99.90
20732;DHT22;10527;52.124;5.196;2023-06-10T01:41:49;22.00;99.90
20732;DHT22;10527;52.124;5.196;2023-06-10T01:44:21;22.00;99.90
20732;DHT22;10527;52.124;5.196;2023-06-10T01:46:49;21.90;99.90
20732;DHT22;10527;52.124;5.196;2023-06-10T01:49:16;21.80;99.90
20732;DHT22;10527;52.124;5.196;2023-06-10T01:51:43;21.90;99.90
20732;DHT22;10527;52.124;5.196;2023-06-10T01:54:10;21.90;99.90
20732;DHT22;10527;52.124;5.196;2023-06-10T01:56:37;21.90;99.90
20732;DHT22;10527;52.124;5.196;2023-06-10T01:59:03;21.80;99.90
20732;DHT22;10527;52.124;5.196;2023-06-10T02:01:30;21.70;99.90
20732;DHT22;10527;52.124;5.196;2023-06-10T02:03:57;21.80;99.90
20732;DHT22;10527;52.124;5.196;2023-06-10T02:06:24;21.70;99.90
20732;DHT22;10527;52.124;5.196;2023-06-10T02:08:51;21.60;99.90
20732;DHT22;10527;52.124;5.196;2023-06-10T02:11:18;21.70;99.90
20732;DHT22;10527;52.124;5.196;2023-06-10T02:13:45;21.60;99.90
20732;DHT22;10527;52.124;5.196;2023-06-10T02:16:12;21.60;99.90
20732;DHT22;10527;52.124;5.196;2023-06-10T02:18:41;21.50;99.90
20732;DHT22;10527;52.124;5.196;2023-06-10T02:21:09;21.60;99.90
20732;DHT22;10527;52.124;5.196;2023-06-10T02:23:37;21.50;99.90
20732;DHT22;10527;52.124;5.196;2023-06-10T02:26:04;21.40;99.90
20732;DHT22;10527;52.124;5.196;2023-06-10T02:28:31;21.40;99.90
20732;DHT22;10527;52.124;5.196;2023-06-10T02:30:57;21.40;99.90
20732;DHT22;10527;52.124;5.196;2023-06-10T02:33:25;21.40;99.90
20732;DHT22;10527;52.124;5.196;2023-06-10T02:35:54;21.40;99.90
20732;DHT22;10527;52.124;5.196;2023-06-10T02:38:22;21.40;99.90
20732;DHT22;10527;52.124;5.196;2023-06-10T02:40:51;21.40;99.90
20732;DHT22;10527;52.124;5.196;2023-06-10T02:43:18;21.30;99.90
20732;DHT22;10527;52.124;5.196;2023-06-10T02:45:45;21.30;99.90
20732;DHT22;10527;52.124;5.196;2023-06-10T02:48:12;21.30;99.90
20732;DHT22;10527;52.124;5.196;2023-06-10T02:50:39;21.20;99.90
20732;DHT22;10527;52.124;5.196;2023-06-10T02:53:06;21.10;99.90
20732;DHT22;10527;52.124;5.196;2023-06-10T02:55:33;21.10;99.90
20732;DHT22;10527;52.124;5.196;2023-06-10T02:58:01;21.10;99.90
20732;DHT22;10527;52.124;5.196;2023-06-10T03:00:29;21.10;99.90
20732;DHT22;10527;52.124;5.196;2023-06-10T03:02:56;21.00;99.90
20732;DHT22;10527;52.124;5.196;2023-06-10T03:05:24;21.00;99.90
20732;DHT22;10527;52.124;5.196;2023-06-10T03:07:51;21.00;99.90
20732;DHT22;10527;52.124;5.196;2023-06-10T03:10:18;21.00;99.90
20732;DHT22;10527;52.124;5.196;2023-06-10T03:12:46;20.90;99.90
20732;DHT22;10527;52.124;5.196;2023-06-10T03:15:13;20.90;99.90
20732;DHT22;10527;52.124;5.196;2023-06-10T03:17:42;20.90;99.90
20732;DHT22;10527;52.124;5.196;2023-06-10T03:20:09;20.80;99.90
20732;DHT22;10527;52.124;5.196;2023-06-10T03:22:37;20.90;99.90
20732;DHT22;10527;52.124;5.196;2023-06-10T03:25:05;20.80;99.90
20732;DHT22;10527;52.124;5.196;2023-06-10T03:27:33;20.70;99.90
20732;DHT22;10527;52.124;5.196;2023-06-10T03:30:02;20.70;99.90
20732;DHT22;10527;52.124;5.196;2023-06-10T03:32:30;20.70;99.90
20732;DHT22;10527;52.124;5.196;2023-06-10T03:34:57;20.70;99.90
20732;DHT22;10527;52.124;5.196;2023-06-10T03:37:24;20.70;99.90
20732;DHT22;10527;52.124;5.196;2023-06-10T03:39:52;20.60;99.90
20732;DHT22;10527;52.124;5.196;2023-06-10T03:42:19;20.50;99.90
20732;DHT22;10527;52.124;5.196;2023-06-10T03:44:46;20.60;99.90
20732;DHT22;10527;52.124;5.196;2023-06-10T03:47:14;20.50;99.90
20732;DHT22;10527;52.124;5.196;2023-06-10T03:49:42;20.50;99.90
20732;DHT22;10527;52.124;5.196;2023-06-10T03:52:09;20.50;99.90
20732;DHT22;10527;52.124;5.196;2023-06-10T03:54:36;20.50;99.90
20732;DHT22;10527;52.124;5.196;2023-06-10T03:57:03;20.50;99.90
20732;DHT22;10527;52.124;5.196;2023-06-10T03:59:30;20.50;99.90
20732;DHT22;10527;52.124;5.196;2023-06-10T04:01:57;20.50;99.90
20732;DHT22;10527;52.124;5.196;2023-06-10T04:04:23;20.40;99.90
20732;DHT22;10527;52.124;5.196;2023-06-10T04:06:51;20.40;99.90
20732;DHT22;10527;52.124;5.196;2023-06-10T04:09:17;20.40;99.90
20732;DHT22;10527;52.124;5.196;2023-06-10T04:11:44;20.40;99.90
20732;DHT22;10527;52.124;5.196;2023-06-10T04:14:11;20.40;99.90
20732;DHT22;10527;52.124;5.196;2023-06-10T04:16:42;20.40;99.90
20732;DHT22;10527;52.124;5.196;2023-06-10T04:19:09;20.40;99.90
20732;DHT22;10527;52.124;5.196;2023-06-10T04:21:37;20.30;99.90
20732;DHT22;10527;52.124;5.196;2023-06-10T04:24:04;20.30;99.90
20732;DHT22;10527;52.124;5.196;2023-06-10T04:26:31;20.30;99.90
20732;DHT22;10527;52.124;5.196;2023-06-10T04:28:58;20.30;99.90
20732;DHT22;10527;52.124;5.196;2023-06-10T04:31:25;20.40;99.90
20732;DHT22;10527;52.124;5.196;2023-06-10T04:33:52;20.30;99.90
20732;DHT22;10527;52.124;5.196;2023-06-10T04:36:19;20.40;99.90
20732;DHT22;10527;52.124;5.196;2023-06-10T04:38:46;20.30;99.90
20732;DHT22;10527;52.124;5.196;2023-06-10T04:41:13;20.30;99.90
20732;DHT22;10527;52.124;5.196;2023-06-10T04:43:40;20.30;99.90
20732;DHT22;10527;52.124;5.196;2023-06-10T04:46:07;20.30;99.90
20732;DHT22;10527;52.124;5.196;2023-06-10T04:48:35;20.30;99.90
20732;DHT22;10527;52.124;5.196;2023-06-10T04:51:02;20.20;99.90
20732;DHT22;10527;52.124;5.196;2023-06-10T04:53:29;20.30;99.90
20732;DHT22;10527;52.124;5.196;2023-06-10T04:55:57;20.30;99.90
20732;DHT22;10527;52.124;5.196;2023-06-10T04:58:24;20.30;99.90
20732;DHT22;10527;52.124;5.196;2023-06-10T05:00:51;20.30;99.90
20732;DHT22;10527;52.124;5.196;2023-06-10T05:03:18;20.30;99.90
20732;DHT22;10527;52.124;5.196;2023-06-10T05:05:45;20.30;99.90
20732;DHT22;10527;52.124;5.196;2023-06-10T05:08:12;20.40;99.90
20732;DHT22;10527;52.124;5.196;2023-06-10T05:10:39;20.30;99.90
20732;DHT22;10527;52.124;5.196;2023-06-10T05:13:05;20.30;99.90
20732;DHT22;10527;52.124;5.196;2023-06-10T05:15:32;20.40;99.90
20732;DHT22;10527;52.124;5.196;2023-06-10T05:17:59;20.40;99.90
20732;DHT22;10527;52.124;5.196;2023-06-10T05:20:26;20.30;99.90
20732;DHT22;10527;52.124;5.196;2023-06-10T05:22:55;20.40;99.90
20732;DHT22;10527;52.124;5.196;2023-06-10T05:25:21;20.40;99.90
20732;DHT22;10527;52.124;5.196;2023-06-10T05:27:48;20.40;99.90
20732;DHT22;10527;52.124;5.196;2023-06-10T05:30:15;20.50;99.90
20732;DHT22;10527;52.124;5.196;2023-06-10T05:32:45;20.50;99.90
20732;DHT22;10527;52.124;5.196;2023-06-10T05:35:12;20.60;99.90
20732;DHT22;10527;52.124;5.196;2023-06-10T05:37:39;20.50;99.90
20732;DHT22;10527;52.124;5.196;2023-06-10T05:40:06;20.50;99.90
20732;DHT22;10527;52.124;5.196;2023-06-10T05:42:35;20.60;99.90
20732;DHT22;10527;52.124;5.196;2023-06-10T05:45:02;20.60;99.90
20732;DHT22;10527;52.124;5.196;2023-06-10T05:47:30;20.70;99.90
20732;DHT22;10527;52.124;5.196;2023-06-10T05:50:08;20.70;99.90
20732;DHT22;10527;52.124;5.196;2023-06-10T05:52:42;20.70;99.90
20732;DHT22;10527;52.124;5.196;2023-06-10T05:55:15;20.70;99.90
20732;DHT22;10527;52.124;5.196;2023-06-10T05:57:43;20.70;99.90
20732;DHT22;10527;52.124;5.196;2023-06-10T06:00:11;20.70;99.90
20732;DHT22;10527;52.124;5.196;2023-06-10T06:02:38;20.70;99.90
20732;DHT22;10527;52.124;5.196;2023-06-10T06:05:08;20.70;99.90
20732;DHT22;10527;52.124;5.196;2023-06-10T06:07:36;20.80;99.90
20732;DHT22;10527;52.124;5.196;2023-06-10T06:10:03;20.80;99.90
20732;DHT22;10527;52.124;5.196;2023-06-10T06:12:30;20.90;99.90
20732;DHT22;10527;52.124;5.196;2023-06-10T06:14:57;20.90;99.90
20732;DHT22;10527;52.124;5.196;2023-06-10T06:17:27;21.00;99.90
20732;DHT22;10527;52.124;5.196;2023-06-10T06:19:54;21.00;99.90
20732;DHT22;10527;52.124;5.196;2023-06-10T06:22:21;21.00;99.90
20732;DHT22;10527;52.124;5.196;2023-06-10T06:24:48;21.00;99.90
20732;DHT22;10527;52.124;5.196;2023-06-10T06:27:16;21.10;99.90
20732;DHT22;10527;52.124;5.196;2023-06-10T06:29:43;21.10;99.90
20732;DHT22;10527;52.124;5.196;2023-06-10T06:32:10;21.20;99.90
20732;DHT22;10527;52.124;5.196;2023-06-10T06:34:46;21.30;99.90
20732;DHT22;10527;52.124;5.196;2023-06-10T06:37:24;21.30;99.90
20732;DHT22;10527;52.124;5.196;2023-06-10T06:39:52;21.30;99.90
20732;DHT22;10527;52.124;5.196;2023-06-10T06:42:20;21.30;99.90
20732;DHT22;10527;52.124;5.196;2023-06-10T06:44:47;21.40;99.90
20732;DHT22;10527;52.124;5.196;2023-06-10T06:47:14;21.40;99.90
20732;DHT22;10527;52.124;5.196;2023-06-10T06:49:41;21.40;99.90
20732;DHT22;10527;52.124;5.196;2023-06-10T06:52:09;21.50;99.90
20732;DHT22;10527;52.124;5.196;2023-06-10T06:54:36;21.50;99.90
20732;DHT22;10527;52.124;5.196;2023-06-10T06:57:06;21.60;99.90
20732;DHT22;10527;52.124;5.196;2023-06-10T06:59:34;21.60;99.90
20732;DHT22;10527;52.124;5.196;2023-06-10T07:02:00;21.70;99.90
20732;DHT22;10527;52.124;5.196;2023-06-10T07:04:29;21.70;99.90
20732;DHT22;10527;52.124;5.196;2023-06-10T07:06:56;21.80;99.90
20732;DHT22;10527;52.124;5.196;2023-06-10T07:09:29;21.90;99.90
20732;DHT22;10527;52.124;5.196;2023-06-10T07:11:56;21.90;99.90
20732;DHT22;10527;52.124;5.196;2023-06-10T07:14:23;22.00;99.90
20732;DHT22;10527;52.124;5.196;2023-06-10T07:16:52;22.00;99.90
20732;DHT22;10527;52.124;5.196;2023-06-10T07:19:19;22.10;99.90
20732;DHT22;10527;52.124;5.196;2023-06-10T07:21:48;22.20;99.90
20732;DHT22;10527;52.124;5.196;2023-06-10T07:24:15;22.20;99.90
20732;DHT22;10527;52.124;5.196;2023-06-10T07:26:42;22.20;99.90
20732;DHT22;10527;52.124;5.196;2023-06-10T07:29:09;22.30;99.90
20732;DHT22;10527;52.124;5.196;2023-06-10T07:31:36;22.40;99.90
20732;DHT22;10527;52.124;5.196;2023-06-10T07:34:03;22.50;99.90
20732;DHT22;10527;52.124;5.196;2023-06-10T07:36:30;22.60;99.90
20732;DHT22;10527;52.124;5.196;2023-06-10T07:38:57;22.90;99.90
20732;DHT22;10527;52.124;5.196;2023-06-10T07:41:24;23.10;99.90
20732;DHT22;10527;52.124;5.196;2023-06-10T07:43:53;23.40;99.90
20732;DHT22;10527;52.124;5.196;2023-06-10T07:46:22;23.90;99.90
20732;DHT22;10527;52.124;5.196;2023-06-10T07:48:58;24.10;99.90
20732;DHT22;10527;52.124;5.196;2023-06-10T07:51:25;24.30;99.90
20732;DHT22;10527;52.124;5.196;2023-06-10T07:53:52;24.60;99.90
20732;DHT22;10527;52.124;5.196;2023-06-10T07:56:29;24.80;99.90
20732;DHT22;10527;52.124;5.196;2023-06-10T07:58:57;25.00;99.90
20732;DHT22;10527;52.124;5.196;2023-06-10T08:05:30;25.40;99.90
20732;DHT22;10527;52.124;5.196;2023-06-10T08:07:59;25.90;99.90
20732;DHT22;10527;52.124;5.196;2023-06-10T08:11:21;26.00;99.90
20732;DHT22;10527;52.124;5.196;2023-06-10T08:22:01;27.10;99.90
20732;DHT22;10527;52.124;5.196;2023-06-10T08:24:28;27.20;99.90
20732;DHT22;10527;52.124;5.196;2023-06-10T08:30:14;26.90;99.90
20732;DHT22;10527;52.124;5.196;2023-06-10T08:32:42;26.70;99.90
20732;DHT22;10527;52.124;5.196;2023-06-10T08:35:09;26.50;99.90
20732;DHT22;10527;52.124;5.196;2023-06-10T08:37:36;26.60;99.90
20732;DHT22;10527;52.124;5.196;2023-06-10T08:40:04;26.70;99.90
20732;DHT22;10527;52.124;5.196;2023-06-10T08:42:37;26.70;99.90
20732;DHT22;10527;52.124;5.196;2023-06-10T08:45:07;26.80;99.90
20732;DHT22;10527;52.124;5.196;2023-06-10T08:47:44;26.80;99.90
20732;DHT22;10527;52.124;5.196;2023-06-10T08:50:14;26.80;99.90
20732;DHT22;10527;52.124;5.196;2023-06-10T08:52:44;26.80;99.90
20732;DHT22;10527;52.124;5.196;2023-06-10T08:55:18;27.00;99.90
20732;DHT22;10527;52.124;5.196;2023-06-10T08:57:55;26.90;99.90
20732;DHT22;10527;52.124;5.196;2023-06-10T09:00:22;26.90;99.90
20732;DHT22;10527;52.124;5.196;2023-06-10T09:02:50;27.10;99.90
20732;DHT22;10527;52.124;5.196;2023-06-10T09:05:18;27.40;99.90
20732;DHT22;10527;52.124;5.196;2023-06-10T09:07:48;27.40;99.90
20732;DHT22;10527;52.124;5.196;2023-06-10T09:10:15;27.40;99.90
20732;DHT22;10527;52.124;5.196;2023-06-10T09:12:42;27.50;99.90
20732;DHT22;10527;52.124;5.196;2023-06-10T09:15:10;27.60;99.90
20732;DHT22;10527;52.124;5.196;2023-06-10T09:17:38;27.80;99.90
20732;DHT22;10527;52.124;5.196;2023-06-10T09:20:08;27.90;99.90
20732;DHT22;10527;52.124;5.196;2023-06-10T09:22:37;27.90;99.90
20732;DHT22;10527;52.124;5.196;2023-06-10T09:25:10;28.10;99.90
20732;DHT22;10527;52.124;5.196;2023-06-10T09:27:46;28.30;99.90
20732;DHT22;10527;52.124;5.196;2023-06-10T09:30:28;28.30;99.90
20732;DHT22;10527;52.124;5.196;2023-06-10T09:33:01;28.50;99.90
20732;DHT22;10527;52.124;5.196;2023-06-10T09:35:30;28.50;99.90
20732;DHT22;10527;52.124;5.196;2023-06-10T09:37:59;28.60;99.90
20732;DHT22;10527;52.124;5.196;2023-06-10T09:40:28;29.00;99.90
20732;DHT22;10527;52.124;5.196;2023-06-10T09:42:59;29.10;99.90
20732;DHT22;10527;52.124;5.196;2023-06-10T09:45:31;29.50;99.90
20732;DHT22;10527;52.124;5.196;2023-06-10T09:47:58;29.40;99.90
20732;DHT22;10527;52.124;5.196;2023-06-10T09:50:25;29.80;99.90
20732;DHT22;10527;52.124;5.196;2023-06-10T09:52:52;30.10;99.90
20732;DHT22;10527;52.124;5.196;2023-06-10T09:55:19;30.00;99.90
20732;DHT22;10527;52.124;5.196;2023-06-10T09:57:49;30.10;99.90
20732;DHT22;10527;52.124;5.196;2023-06-10T10:00:21;30.20;99.90
20732;DHT22;10527;52.124;5.196;2023-06-10T10:02:51;30.40;99.90
20732;DHT22;10527;52.124;5.196;2023-06-10T10:05:21;30.20;99.90
20732;DHT22;10527;52.124;5.196;2023-06-10T10:07:49;30.40;99.90
20732;DHT22;10527;52.124;5.196;2023-06-10T10:10:19;30.40;99.90
20732;DHT22;10527;52.124;5.196;2023-06-10T10:12:50;30.40;99.90
20732;DHT22;10527;52.124;5.196;2023-06-10T10:15:24;30.50;99.90
20732;DHT22;10527;52.124;5.196;2023-06-10T10:18:07;30.40;99.90
20732;DHT22;10527;52.124;5.196;2023-06-10T10:20:43;30.50;99.90
20732;DHT22;10527;52.124;5.196;2023-06-10T10:23:14;30.30;99.90
20732;DHT22;10527;52.124;5.196;2023-06-10T10:25:51;30.50;99.90
20732;DHT22;10527;52.124;5.196;2023-06-10T10:28:24;30.60;99.90
20732;DHT22;10527;52.124;5.196;2023-06-10T10:30:54;30.70;99.90
20732;DHT22;10527;52.124;5.196;2023-06-10T10:33:33;30.90;99.90
20732;DHT22;10527;52.124;5.196;2023-06-10T10:36:09;31.10;99.90
20732;DHT22;10527;52.124;5.196;2023-06-10T10:38:38;31.20;99.90
20732;DHT22;10527;52.124;5.196;2023-06-10T10:41:06;31.20;99.90
20732;DHT22;10527;52.124;5.196;2023-06-10T10:43:34;31.10;99.90
20732;DHT22;10527;52.124;5.196;2023-06-10T10:46:02;31.20;99.90
20732;DHT22;10527;52.124;5.196;2023-06-10T10:48:39;31.20;99.90
20732;DHT22;10527;52.124;5.196;2023-06-10T10:51:08;31.00;99.90
20732;DHT22;10527;52.124;5.196;2023-06-10T10:53:39;31.20;99.90
20732;DHT22;10527;52.124;5.196;2023-06-10T10:56:08;31.40;99.90
20732;DHT22;10527;52.124;5.196;2023-06-10T10:58:40;31.60;99.90
20732;DHT22;10527;52.124;5.196;2023-06-10T11:01:14;31.50;99.90
20732;DHT22;10527;52.124;5.196;2023-06-10T11:03:45;31.60;99.90
20732;DHT22;10527;52.124;5.196;2023-06-10T11:06:19;31.60;99.90
20732;DHT22;10527;52.124;5.196;2023-06-10T11:08:46;31.50;99.90
20732;DHT22;10527;52.124;5.196;2023-06-10T11:16:28;31.80;99.90
20732;DHT22;10527;52.124;5.196;2023-06-10T11:18:56;31.80;99.90
20732;DHT22;10527;52.124;5.196;2023-06-10T11:21:24;31.80;99.90
20732;DHT22;10527;52.124;5.196;2023-06-10T11:23:57;31.90;99.90
20732;DHT22;10527;52.124;5.196;2023-06-10T11:26:29;31.90;99.90
20732;DHT22;10527;52.124;5.196;2023-06-10T11:29:04;31.80;99.90
20732;DHT22;10527;52.124;5.196;2023-06-10T11:31:39;31.60;99.90
20732;DHT22;10527;52.124;5.196;2023-06-10T11:34:07;31.70;99.90
20732;DHT22;10527;52.124;5.196;2023-06-10T11:36:40;31.70;99.90
20732;DHT22;10527;52.124;5.196;2023-06-10T11:39:10;31.80;99.90
20732;DHT22;10527;52.124;5.196;2023-06-10T11:41:38;32.00;99.90
20732;DHT22;10527;52.124;5.196;2023-06-10T11:44:13;32.00;99.90
20732;DHT22;10527;52.124;5.196;2023-06-10T11:46:45;32.00;99.90
20732;DHT22;10527;52.124;5.196;2023-06-10T11:49:14;32.20;99.90
20732;DHT22;10527;52.124;5.196;2023-06-10T11:51:43;32.10;99.90
20732;DHT22;10527;52.124;5.196;2023-06-10T11:54:17;32.10;99.90
20732;DHT22;10527;52.124;5.196;2023-06-10T11:56:44;32.40;99.90
20732;DHT22;10527;52.124;5.196;2023-06-10T11:59:11;32.40;99.90
20732;DHT22;10527;52.124;5.196;2023-06-10T12:01:43;32.40;99.90
20732;DHT22;10527;52.124;5.196;2023-06-10T12:04:13;32.30;99.90
20732;DHT22;10527;52.124;5.196;2023-06-10T12:06:49;32.30;99.90
20732;DHT22;10527;52.124;5.196;2023-06-10T12:09:18;32.30;99.90
20732;DHT22;10527;52.124;5.196;2023-06-10T12:20:00;32.70;99.90
20732;DHT22;10527;52.124;5.196;2023-06-10T12:22:36;32.60;99.90
20732;DHT22;10527;52.124;5.196;2023-06-10T12:25:06;32.80;99.90
20732;DHT22;10527;52.124;5.196;2023-06-10T12:27:35;32.70;99.90
20732;DHT22;10527;52.124;5.196;2023-06-10T12:30:05;32.70;99.90
20732;DHT22;10527;52.124;5.196;2023-06-10T12:32:44;32.70;99.90
20732;DHT22;10527;52.124;5.196;2023-06-10T12:35:16;32.70;99.90
20732;DHT22;10527;52.124;5.196;2023-06-10T12:38:14;32.90;99.90
20732;DHT22;10527;52.124;5.196;2023-06-10T12:40:43;32.90;99.90
20732;DHT22;10527;52.124;5.196;2023-06-10T12:43:10;32.90;99.90
20732;DHT22;10527;52.124;5.196;2023-06-10T12:45:44;33.00;99.90
20732;DHT22;10527;52.124;5.196;2023-06-10T12:48:21;33.00;99.90
20732;DHT22;10527;52.124;5.196;2023-06-10T12:50:54;33.10;99.90
20732;DHT22;10527;52.124;5.196;2023-06-10T12:53:24;32.80;99.90
20732;DHT22;10527;52.124;5.196;2023-06-10T12:55:54;32.80;99.90
20732;DHT22;10527;52.124;5.196;2023-06-10T12:58:24;32.90;99.90
20732;DHT22;10527;52.124;5.196;2023-06-10T13:00:51;32.90;99.90
20732;DHT22;10527;52.124;5.196;2023-06-10T13:03:20;33.00;99.90
20732;DHT22;10527;52.124;5.196;2023-06-10T13:05:47;33.00;99.90
20732;DHT22;10527;52.124;5.196;2023-06-10T13:08:17;33.00;99.90
20732;DHT22;10527;52.124;5.196;2023-06-10T13:10:43;32.90;99.90
20732;DHT22;10527;52.124;5.196;2023-06-10T13:13:11;33.00;99.90
20732;DHT22;10527;52.124;5.196;2023-06-10T13:15:40;32.90;99.90
20732;DHT22;10527;52.124;5.196;2023-06-10T13:18:10;32.90;99.90
20732;DHT22;10527;52.124;5.196;2023-06-10T13:20:39;33.00;99.90
20732;DHT22;10527;52.124;5.196;2023-06-10T13:23:06;33.20;99.90
20732;DHT22;10527;52.124;5.196;2023-06-10T13:25:33;33.30;99.90
20732;DHT22;10527;52.124;5.196;2023-06-10T13:28:00;33.30;99.90
20732;DHT22;10527;52.124;5.196;2023-06-10T13:30:27;33.50;99.90
20732;DHT22;10527;52.124;5.196;2023-06-10T13:32:54;33.50;99.90
20732;DHT22;10527;52.124;5.196;2023-06-10T13:35:21;33.50;99.90
20732;DHT22;10527;52.124;5.196;2023-06-10T13:37:48;33.40;99.90
20732;DHT22;10527;52.124;5.196;2023-06-10T13:40:15;33.30;99.90
20732;DHT22;10527;52.124;5.196;2023-06-10T13:42:42;33.40;99.90
20732;DHT22;10527;52.124;5.196;2023-06-10T13:45:09;33.30;99.90
20732;DHT22;10527;52.124;5.196;2023-06-10T13:47:37;33.40;99.90
20732;DHT22;10527;52.124;5.196;2023-06-10T13:50:05;33.40;99.90
20732;DHT22;10527;52.124;5.196;2023-06-10T13:52:33;33.60;99.90
20732;DHT22;10527;52.124;5.196;2023-06-10T13:54:59;33.60;99.90
20732;DHT22;10527;52.124;5.196;2023-06-10T13:57:26;33.60;99.90
20732;DHT22;10527;52.124;5.196;2023-06-10T13:59:53;33.60;99.90
20732;DHT22;10527;52.124;5.196;2023-06-10T14:02:22;33.40;99.90
20732;DHT22;10527;52.124;5.196;2023-06-10T14:04:50;33.60;99.90
20732;DHT22;10527;52.124;5.196;2023-06-10T14:07:17;33.70;99.90
20732;DHT22;10527;52.124;5.196;2023-06-10T14:09:44;33.80;99.90
20732;DHT22;10527;52.124;5.196;2023-06-10T14:12:11;33.80;99.90
20732;DHT22;10527;52.124;5.196;2023-06-10T14:14:39;33.70;99.90
20732;DHT22;10527;52.124;5.196;2023-06-10T14:17:06;33.70;99.90
20732;DHT22;10527;52.124;5.196;2023-06-10T14:19:33;33.80;99.90
20732;DHT22;10527;52.124;5.196;2023-06-10T14:22:00;33.90;99.90
20732;DHT22;10527;52.124;5.196;2023-06-10T14:24:26;33.90;99.90
20732;DHT22;10527;52.124;5.196;2023-06-10T14:26:53;33.90;99.90
20732;DHT22;10527;52.124;5.196;2023-06-10T14:29:20;33.90;99.90
20732;DHT22;10527;52.124;5.196;2023-06-10T14:31:48;33.90;99.90
20732;DHT22;10527;52.124;5.196;2023-06-10T14:34:15;33.90;99.90
20732;DHT22;10527;52.124;5.196;2023-06-10T14:36:42;33.80;99.90
20732;DHT22;10527;52.124;5.196;2023-06-10T14:39:09;33.80;99.90
20732;DHT22;10527;52.124;5.196;2023-06-10T14:41:36;33.80;99.90
20732;DHT22;10527;52.124;5.196;2023-06-10T14:44:03;33.80;99.90
20732;DHT22;10527;52.124;5.196;2023-06-10T14:46:30;33.80;99.90
20732;DHT22;10527;52.124;5.196;2023-06-10T14:48:57;33.80;99.90
20732;DHT22;10527;52.124;5.196;2023-06-10T14:51:25;33.60;99.90
20732;DHT22;10527;52.124;5.196;2023-06-10T14:53:52;33.40;99.90
20732;DHT22;10527;52.124;5.196;2023-06-10T14:56:19;33.40;99.90
20732;DHT22;10527;52.124;5.196;2023-06-10T14:58:47;33.50;99.90
20732;DHT22;10527;52.124;5.196;2023-06-10T15:01:14;33.50;99.90
20732;DHT22;10527;52.124;5.196;2023-06-10T15:03:41;33.60;99.90
20732;DHT22;10527;52.124;5.196;2023-06-10T15:06:07;33.50;99.90
20732;DHT22;10527;52.124;5.196;2023-06-10T15:08:34;33.30;99.90
20732;DHT22;10527;52.124;5.196;2023-06-10T15:11:01;33.20;99.90
20732;DHT22;10527;52.124;5.196;2023-06-10T15:13:30;33.20;99.90
20732;DHT22;10527;52.124;5.196;2023-06-10T15:15:58;33.40;99.90
20732;DHT22;10527;52.124;5.196;2023-06-10T15:18:29;33.30;99.90
20732;DHT22;10527;52.124;5.196;2023-06-10T15:20:55;33.30;99.90
20732;DHT22;10527;52.124;5.196;2023-06-10T15:23:22;33.50;99.90
20732;DHT22;10527;52.124;5.196;2023-06-10T15:25:49;33.60;99.90
20732;DHT22;10527;52.124;5.196;2023-06-10T15:28:16;33.40;99.90
20732;DHT22;10527;52.124;5.196;2023-06-10T15:30:43;33.50;99.90
20732;DHT22;10527;52.124;5.196;2023-06-10T15:33:10;33.60;99.90
20732;DHT22;10527;52.124;5.196;2023-06-10T15:35:37;33.80;99.90
20732;DHT22;10527;52.124;5.196;2023-06-10T15:38:05;33.70;99.90
20732;DHT22;10527;52.124;5.196;2023-06-10T15:40:32;33.70;99.90
20732;DHT22;10527;52.124;5.196;2023-06-10T15:43:00;33.30;99.90
20732;DHT22;10527;52.124;5.196;2023-06-10T15:45:27;33.10;99.90
20732;DHT22;10527;52.124;5.196;2023-06-10T15:47:54;32.90;99.90
20732;DHT22;10527;52.124;5.196;2023-06-10T15:50:21;32.90;99.90
20732;DHT22;10527;52.124;5.196;2023-06-10T15:52:48;33.00;99.90
20732;DHT22;10527;52.124;5.196;2023-06-10T15:55:14;32.80;99.90
20732;DHT22;10527;52.124;5.196;2023-06-10T15:57:42;32.70;99.90
20732;DHT22;10527;52.124;5.196;2023-06-10T16:00:09;32.80;99.90
20732;DHT22;10527;52.124;5.196;2023-06-10T16:02:36;32.80;99.90
20732;DHT22;10527;52.124;5.196;2023-06-10T16:05:04;32.80;99.90
20732;DHT22;10527;52.124;5.196;2023-06-10T16:07:32;32.90;99.90
20732;DHT22;10527;52.124;5.196;2023-06-10T16:10:00;32.70;99.90
20732;DHT22;10527;52.124;5.196;2023-06-10T16:12:27;32.80;99.90
20732;DHT22;10527;52.124;5.196;2023-06-10T16:14:57;32.90;99.90
20732;DHT22;10527;52.124;5.196;2023-06-10T16:17:24;32.90;99.90